createdAt,value
2018-10-21T00:01:30.215Z,11.33
2018-10-21T00:04:00.039Z,11.40
2018-10-21T00:06:29.839Z,16.60
2018-10-21T00:08:59.694Z,12.50
2018-10-21T00:11:30.811Z,12.93
2018-10-21T00:14:00.610Z,9.37
2018-10-21T00:16:30.367Z,12.00
2018-10-21T00:19:00.117Z,12.27
2018-10-21T00:21:29.765Z,14.67
2018-10-21T00:23:59.456Z,13.93
2018-10-21T00:26:30.162Z,11.10
2018-10-21T00:28:59.872Z,8.53
2018-10-21T00:31:29.629Z,16.70
2018-10-21T00:33:59.366Z,15.03
2018-10-21T00:36:29.109Z,11.23
2018-10-21T00:38:58.896Z,11.70
2018-10-21T00:41:29.440Z,11.50
2018-10-21T00:43:59.241Z,13.03
2018-10-21T00:46:29.023Z,12.83
2018-10-21T00:48:59.191Z,15.57
2018-10-21T00:51:29.246Z,11.10
2018-10-21T00:53:59.342Z,11.90
2018-10-21T00:56:30.249Z,12.90
2018-10-21T00:59:00.391Z,10.20
2018-10-21T01:01:30.422Z,10.90
2018-10-21T01:04:00.561Z,14.90
2018-10-21T01:06:30.633Z,13.50
2018-10-21T01:09:00.849Z,11.90
2018-10-21T01:11:32.073Z,16.27
2018-10-21T01:14:02.101Z,14.77
2018-10-21T01:16:32.443Z,14.80
2018-10-21T01:19:02.678Z,12.17
2018-10-21T01:21:32.840Z,12.47
2018-10-21T01:24:03.166Z,14.57
2018-10-21T01:26:33.159Z,16.33
2018-10-21T01:29:03.059Z,11.43
2018-10-21T01:31:32.870Z,12.97
2018-10-21T01:34:02.752Z,19.83
2018-10-21T01:36:32.761Z,13.30
2018-10-21T01:39:02.542Z,13.67
2018-10-21T01:41:32.540Z,10.47
2018-10-21T01:44:02.220Z,12.77
2018-10-21T01:46:31.819Z,10.93
2018-10-21T01:49:01.593Z,12.97
2018-10-21T01:51:32.649Z,11.73
2018-10-21T01:54:02.519Z,14.67
2018-10-21T01:56:32.785Z,17.37
2018-10-21T01:59:02.841Z,16.53
2018-10-21T02:01:36.312Z,16.20
2018-10-21T02:04:06.378Z,17.00
2018-10-21T02:06:36.528Z,13.20
2018-10-21T02:09:07.830Z,15.50
2018-10-21T02:11:38.382Z,12.93
2018-10-21T02:14:08.556Z,14.77
2018-10-21T02:16:38.529Z,18.03
2018-10-21T02:19:08.574Z,14.23
2018-10-21T02:21:39.217Z,13.50
2018-10-21T02:24:19.406Z,15.70
2018-10-21T02:26:49.753Z,10.73
2018-10-21T02:29:22.616Z,14.73
2018-10-21T02:31:52.802Z,13.47
2018-10-21T02:34:22.808Z,15.60
2018-10-21T02:36:52.859Z,11.60
2018-10-21T02:39:22.980Z,12.37
2018-10-21T02:41:58.351Z,13.97
2018-10-21T02:44:30.044Z,14.30
2018-10-21T02:47:00.095Z,13.33
2018-10-21T02:49:30.295Z,16.60
2018-10-21T02:52:05.464Z,9.33
2018-10-21T02:54:36.173Z,10.77
2018-10-21T02:57:10.222Z,12.13
2018-10-21T02:59:40.353Z,18.70
2018-10-21T03:02:10.429Z,15.17
2018-10-21T03:04:40.541Z,13.77
2018-10-21T03:07:10.660Z,15.33
2018-10-21T03:09:41.813Z,13.13
2018-10-21T03:12:12.012Z,14.13
2018-10-21T03:14:42.045Z,14.60
2018-10-21T03:17:12.093Z,11.47
2018-10-21T03:19:41.974Z,13.23
2018-10-21T03:22:11.900Z,12.50
2018-10-21T03:24:43.108Z,12.00
2018-10-21T03:27:13.040Z,11.67
2018-10-21T03:29:42.890Z,18.87
2018-10-21T03:32:12.909Z,15.03
2018-10-21T03:34:42.791Z,12.23
2018-10-21T03:37:12.645Z,18.97
2018-10-21T03:39:43.336Z,13.20
2018-10-21T03:42:13.265Z,13.23
2018-10-21T03:44:43.246Z,14.13
2018-10-21T03:47:13.002Z,16.43
2018-10-21T03:49:42.844Z,13.13
2018-10-21T03:52:12.708Z,11.93
2018-10-21T03:54:47.782Z,11.20
2018-10-21T03:57:17.462Z,12.03
2018-10-21T03:59:47.181Z,11.50
2018-10-21T04:02:16.997Z,12.67
2018-10-21T04:04:46.752Z,11.30
2018-10-21T04:07:16.566Z,13.47
2018-10-21T04:09:46.615Z,13.60
2018-10-21T04:12:16.424Z,14.97
2018-10-21T04:14:46.250Z,10.77
2018-10-21T04:17:16.074Z,12.87
2018-10-21T04:19:45.909Z,13.30
2018-10-21T04:22:15.763Z,13.47
2018-10-21T04:24:45.464Z,12.77
2018-10-21T04:27:15.230Z,11.50
2018-10-21T04:29:45.005Z,13.13
2018-10-21T04:32:15.029Z,15.40
2018-10-21T04:34:44.721Z,11.70
2018-10-21T04:37:31.184Z,11.40
2018-10-21T04:40:16.570Z,11.10
2018-10-21T04:42:48.448Z,10.63
2018-10-21T04:45:22.928Z,11.43
2018-10-21T04:47:52.694Z,11.73
2018-10-21T04:50:22.470Z,13.47
2018-10-21T04:52:52.261Z,11.50
2018-10-21T04:55:21.961Z,12.67
2018-10-21T04:57:51.691Z,14.80
2018-10-21T05:00:21.636Z,20.03
2018-10-21T05:02:51.311Z,17.87
2018-10-21T05:05:21.430Z,18.60
2018-10-21T05:07:51.264Z,17.40
2018-10-21T05:10:26.303Z,19.37
2018-10-21T05:12:56.115Z,19.97
2018-10-21T05:15:26.728Z,16.30
2018-10-21T05:17:56.735Z,20.93
2018-10-21T05:20:26.551Z,14.10
2018-10-21T05:22:56.616Z,15.50
2018-10-21T05:25:26.489Z,22.47
2018-10-21T05:27:56.197Z,13.50
2018-10-21T05:30:25.965Z,15.10
2018-10-21T05:33:14.007Z,14.63
2018-10-21T05:35:43.682Z,15.80
2018-10-21T05:38:13.444Z,17.60
2018-10-21T05:40:43.392Z,13.07
2018-10-21T05:43:13.176Z,15.23
2018-10-21T05:45:43.570Z,13.20
2018-10-21T05:48:13.335Z,13.10
2018-10-21T05:50:43.007Z,11.73
2018-10-21T05:53:12.738Z,11.27
2018-10-21T05:55:42.427Z,12.87
2018-10-21T05:58:12.202Z,16.70
2018-10-21T06:00:43.067Z,15.93
2018-10-21T06:03:12.740Z,14.40
2018-10-21T06:05:44.153Z,16.47
2018-10-21T06:08:13.900Z,14.43
2018-10-21T06:10:44.587Z,15.00
2018-10-21T06:13:14.860Z,13.80
2018-10-21T06:15:44.773Z,20.70
2018-10-21T06:18:22.921Z,11.70
2018-10-21T06:20:54.672Z,11.80
2018-10-21T06:23:24.820Z,12.17
2018-10-21T06:25:55.010Z,10.17
2018-10-21T06:28:26.285Z,11.67
2018-10-21T06:30:57.960Z,14.30
2018-10-21T06:33:29.994Z,11.27
2018-10-21T06:36:03.469Z,11.63
2018-10-21T06:38:38.664Z,13.00
2018-10-21T06:41:09.552Z,15.13
2018-10-21T06:43:42.246Z,14.67
2018-10-21T06:46:13.566Z,14.77
2018-10-21T06:48:45.662Z,12.50
2018-10-21T06:51:17.997Z,15.13
2018-10-21T06:53:49.002Z,19.60
2018-10-21T06:56:19.681Z,16.30
2018-10-21T06:58:49.391Z,22.37
2018-10-21T07:01:19.399Z,18.63
2018-10-21T07:03:49.095Z,20.67
2018-10-21T07:06:22.971Z,24.40
2018-10-21T07:08:54.050Z,18.87
2018-10-21T07:11:25.531Z,20.23
2018-10-21T07:13:55.261Z,22.00
2018-10-21T07:16:25.239Z,20.43
2018-10-21T07:18:55.884Z,21.73
2018-10-21T07:21:25.851Z,16.23
2018-10-21T07:23:55.605Z,19.33
2018-10-21T07:26:25.532Z,16.20
2018-10-21T07:30:38.615Z,23.80
2018-10-21T07:33:08.362Z,18.33
2018-10-21T07:35:38.888Z,20.47
2018-10-21T07:38:21.977Z,18.23
2018-10-21T07:41:02.453Z,19.80
2018-10-21T07:43:42.235Z,18.73
2018-10-21T07:46:20.956Z,20.30
2018-10-21T07:48:51.222Z,17.13
2018-10-21T07:51:24.507Z,16.63
2018-10-21T07:53:54.776Z,28.03
2018-10-21T07:56:24.453Z,18.60
2018-10-21T07:58:54.104Z,20.63
2018-10-21T08:01:24.669Z,21.17
2018-10-21T08:03:54.432Z,14.97
2018-10-21T08:06:41.439Z,21.83
2018-10-21T08:09:13.049Z,18.03
2018-10-21T08:11:44.026Z,16.93
2018-10-21T08:14:13.778Z,15.50
2018-10-21T08:16:43.834Z,15.23
2018-10-21T08:19:13.874Z,14.77
2018-10-21T08:21:44.681Z,18.93
2018-10-21T08:24:14.359Z,17.40
2018-10-21T08:26:44.239Z,21.37
2018-10-21T08:29:13.932Z,16.30
2018-10-21T08:31:44.588Z,13.27
2018-10-21T08:34:14.346Z,15.77
2018-10-21T08:36:45.168Z,14.07
2018-10-21T08:39:14.830Z,12.63
2018-10-21T08:41:45.094Z,14.90
2018-10-21T08:44:15.253Z,17.10
2018-10-21T08:46:45.798Z,17.30
2018-10-21T08:49:15.464Z,17.07
2018-10-21T08:51:46.101Z,22.93
2018-10-21T08:54:15.785Z,16.67
2018-10-21T08:56:46.082Z,15.33
2018-10-21T08:59:15.698Z,19.50
2018-10-21T09:01:45.897Z,17.93
2018-10-21T09:04:15.605Z,19.30
2018-10-21T09:06:46.267Z,19.77
2018-10-21T09:09:15.925Z,18.47
2018-10-21T09:11:46.358Z,14.30
2018-10-21T09:14:16.159Z,16.83
2018-10-21T09:16:46.621Z,20.03
2018-10-21T09:19:16.325Z,15.63
2018-10-21T09:21:46.871Z,14.27
2018-10-21T09:24:16.470Z,14.63
2018-10-21T09:26:46.647Z,20.40
2018-10-21T09:29:16.336Z,18.60
2018-10-21T09:31:46.578Z,17.37
2018-10-21T09:34:16.261Z,17.13
2018-10-21T09:36:46.733Z,16.83
2018-10-21T09:39:16.427Z,13.67
2018-10-21T09:41:46.963Z,15.40
2018-10-21T09:44:16.673Z,15.97
2018-10-21T09:46:47.194Z,11.70
2018-10-21T09:49:16.923Z,12.73
2018-10-21T09:51:47.741Z,12.40
2018-10-21T09:54:17.441Z,16.93
2018-10-21T09:56:47.976Z,15.70
2018-10-21T09:59:17.667Z,12.47
2018-10-21T10:03:58.105Z,13.43
2018-10-21T10:06:27.691Z,11.40
2018-10-21T10:08:57.449Z,11.20
2018-10-21T10:11:27.689Z,10.37
2018-10-21T10:13:57.398Z,16.10
2018-10-21T10:16:27.092Z,11.40
2018-10-21T10:18:56.785Z,11.03
2018-10-21T10:21:26.576Z,14.33
2018-10-21T10:23:56.318Z,16.50
2018-10-21T10:26:25.973Z,10.83
2018-10-21T10:28:55.617Z,10.27
2018-10-21T10:31:25.530Z,10.97
2018-10-21T10:33:55.244Z,11.97
2018-10-21T10:36:24.982Z,10.53
2018-10-21T10:38:54.691Z,12.47
2018-10-21T10:41:24.679Z,11.90
2018-10-21T10:43:54.381Z,8.40
2018-10-21T10:46:24.136Z,11.00
2018-10-21T10:48:53.847Z,7.77
2018-10-21T10:51:23.797Z,8.67
2018-10-21T10:53:53.537Z,11.33
2018-10-21T10:56:23.333Z,11.40
2018-10-21T10:58:53.272Z,13.13
2018-10-21T11:01:23.810Z,9.03
2018-10-21T11:03:53.769Z,7.63
2018-10-21T11:06:23.575Z,9.63
2018-10-21T11:08:53.357Z,10.07
2018-10-21T11:11:23.522Z,11.63
2018-10-21T11:13:53.600Z,9.63
2018-10-21T11:16:23.223Z,6.83
2018-10-21T11:18:53.436Z,8.80
2018-10-21T11:21:23.620Z,9.53
2018-10-21T11:23:53.707Z,11.00
2018-10-21T11:26:23.497Z,8.53
2018-10-21T11:28:54.050Z,13.43
2018-10-21T11:31:24.394Z,9.57
2018-10-21T11:33:54.613Z,10.27
2018-10-21T11:36:24.274Z,10.40
2018-10-21T11:38:54.590Z,11.23
2018-10-21T11:41:24.638Z,14.23
2018-10-21T11:43:54.665Z,10.67
2018-10-21T11:46:24.486Z,8.27
2018-10-21T11:48:54.934Z,10.03
2018-10-21T11:51:24.706Z,9.70
2018-10-21T11:53:55.024Z,11.33
2018-10-21T11:56:24.821Z,7.27
2018-10-21T11:58:55.345Z,11.27
2018-10-21T12:01:25.226Z,8.53
2018-10-21T12:03:55.642Z,11.50
2018-10-21T12:06:25.286Z,12.67
2018-10-21T12:08:56.164Z,8.83
2018-10-21T12:11:26.357Z,6.70
2018-10-21T12:13:56.328Z,6.80
2018-10-21T12:16:25.941Z,6.00
2018-10-21T12:18:56.589Z,5.37
2018-10-21T12:21:26.200Z,8.27
2018-10-21T12:23:56.707Z,3.63
2018-10-21T12:26:26.351Z,8.87
2018-10-21T12:28:56.938Z,4.60
2018-10-21T12:31:26.545Z,7.67
2018-10-21T12:33:57.107Z,9.73
2018-10-21T12:36:26.770Z,5.17
2018-10-21T12:38:57.304Z,6.57
2018-10-21T12:41:26.985Z,4.90
2018-10-21T12:43:57.492Z,8.47
2018-10-21T12:46:27.160Z,5.97
2018-10-21T12:48:58.057Z,6.13
2018-10-21T12:51:27.673Z,5.03
2018-10-21T12:53:58.125Z,5.33
2018-10-21T12:56:27.787Z,4.73
2018-10-21T12:58:58.501Z,3.60
2018-10-21T13:01:28.163Z,6.17
2018-10-21T13:03:58.868Z,9.00
2018-10-21T13:06:28.646Z,8.53
2018-10-21T13:08:58.904Z,6.77
2018-10-21T13:11:29.001Z,5.07
2018-10-21T13:13:59.252Z,7.63
2018-10-21T13:16:28.978Z,6.57
2018-10-21T13:18:59.571Z,8.13
2018-10-21T13:21:29.227Z,11.27
2018-10-21T13:23:59.911Z,5.97
2018-10-21T13:26:29.931Z,6.87
2018-10-21T13:29:00.121Z,6.50
2018-10-21T13:31:29.778Z,10.70
2018-10-21T13:34:00.457Z,6.13
2018-10-21T13:36:30.212Z,5.17
2018-10-21T13:39:00.724Z,6.30
2018-10-21T13:41:31.052Z,6.20
2018-10-21T13:44:00.997Z,6.00
2018-10-21T13:46:30.828Z,7.97
2018-10-21T13:49:01.161Z,5.37
2018-10-21T13:51:30.795Z,3.93
2018-10-21T13:54:01.337Z,7.13
2018-10-21T13:56:31.674Z,5.50
2018-10-21T13:59:01.861Z,7.87
2018-10-21T14:01:31.550Z,5.77
2018-10-21T14:04:02.051Z,5.67
2018-10-21T14:06:31.653Z,3.83
2018-10-21T14:09:02.027Z,4.90
2018-10-21T14:11:32.734Z,4.77
2018-10-21T14:14:02.748Z,7.60
2018-10-21T14:16:32.402Z,6.50
2018-10-21T14:19:02.677Z,5.93
2018-10-21T14:21:32.312Z,7.20
2018-10-21T14:24:03.090Z,7.07
2018-10-21T14:26:33.518Z,5.80
2018-10-21T14:29:03.405Z,3.50
2018-10-21T14:31:33.126Z,7.50
2018-10-21T14:34:03.128Z,5.03
2018-10-21T14:36:32.769Z,7.43
2018-10-21T14:39:03.546Z,8.23
2018-10-21T14:41:33.951Z,7.40
2018-10-21T14:44:04.023Z,10.17
2018-10-21T14:46:33.733Z,10.77
2018-10-21T14:49:04.013Z,5.70
2018-10-21T14:51:33.741Z,6.83
2018-10-21T14:54:04.281Z,5.53
2018-10-21T14:56:35.280Z,8.63
2018-10-21T14:59:05.262Z,6.57
2018-10-21T15:01:35.077Z,5.83
2018-10-21T15:04:05.136Z,10.07
2018-10-21T15:06:34.873Z,4.33
2018-10-21T15:09:08.633Z,4.97
2018-10-21T15:11:39.274Z,3.93
2018-10-21T15:14:09.205Z,7.77
2018-10-21T15:16:39.189Z,4.97
2018-10-21T15:19:08.884Z,6.73
2018-10-21T15:21:39.844Z,5.27
2018-10-21T15:24:09.497Z,11.80
2018-10-21T15:26:39.356Z,7.17
2018-10-21T15:29:09.066Z,5.37
2018-10-21T15:31:38.671Z,5.53
2018-10-21T15:34:08.397Z,7.03
2018-10-21T15:36:38.549Z,5.53
2018-10-21T15:39:10.644Z,5.30
2018-10-21T15:41:40.851Z,5.13
2018-10-21T15:44:10.632Z,7.17
2018-10-21T15:46:40.360Z,6.43
2018-10-21T15:49:10.080Z,10.10
2018-10-21T15:51:40.626Z,8.77
2018-10-21T15:54:10.353Z,8.57
2018-10-21T15:56:40.089Z,5.73
2018-10-21T15:59:09.747Z,35.97
2018-10-21T16:01:39.697Z,46.80
2018-10-21T16:04:09.475Z,16.97
2018-10-21T16:06:40.185Z,14.47
2018-10-21T16:09:12.366Z,13.70
2018-10-21T16:11:43.083Z,10.43
2018-10-21T16:14:12.737Z,14.13
2018-10-21T16:16:42.296Z,11.33
2018-10-21T16:19:11.992Z,8.83
2018-10-21T16:21:42.536Z,9.33
2018-10-21T16:24:12.253Z,9.07
2018-10-21T16:26:42.080Z,11.70
2018-10-21T16:29:12.370Z,4.63
2018-10-21T16:31:42.084Z,6.20
2018-10-21T16:34:12.819Z,10.73
2018-10-21T16:36:43.338Z,6.60
2018-10-21T16:39:14.189Z,7.53
2018-10-21T16:41:44.512Z,6.97
2018-10-21T16:44:14.645Z,4.77
2018-10-21T16:46:44.362Z,17.80
2018-10-21T16:49:14.092Z,14.93
2018-10-21T16:51:44.291Z,12.50
2018-10-21T16:54:14.854Z,15.27
2018-10-21T16:56:44.532Z,10.10
2018-10-21T16:59:14.224Z,8.50
2018-10-21T17:01:43.899Z,9.23
2018-10-21T17:04:14.075Z,6.33
2018-10-21T17:06:44.390Z,7.70
2018-10-21T17:09:15.409Z,4.87
2018-10-21T17:11:45.295Z,9.73
2018-10-21T17:14:15.642Z,8.03
2018-10-21T17:16:45.349Z,10.37
2018-10-21T17:19:15.782Z,8.47
2018-10-21T17:21:45.418Z,8.00
2018-10-21T17:24:15.647Z,13.03
2018-10-21T17:26:45.283Z,7.97
2018-10-21T17:29:15.650Z,5.63
2018-10-21T17:31:45.394Z,7.27
2018-10-21T17:34:15.724Z,6.37
2018-10-21T17:36:45.339Z,10.20
2018-10-21T17:39:16.223Z,8.07
2018-10-21T17:41:45.885Z,9.00
2018-10-21T17:44:16.303Z,8.40
2018-10-21T17:46:46.028Z,13.20
2018-10-21T17:49:16.210Z,9.33
2018-10-21T17:51:45.974Z,8.07
2018-10-21T17:54:16.250Z,11.77
2018-10-21T17:56:50.966Z,11.17
2018-10-21T17:59:20.655Z,11.50
2018-10-21T18:01:50.426Z,11.20
2018-10-21T18:04:20.379Z,13.50
2018-10-21T18:06:50.401Z,14.87
2018-10-21T18:09:19.963Z,13.47
2018-10-21T18:11:49.604Z,10.47
2018-10-21T18:14:19.838Z,13.13
2018-10-21T18:16:49.479Z,13.03
2018-10-21T18:19:19.734Z,13.43
2018-10-21T18:21:49.464Z,17.60
2018-10-21T18:24:19.865Z,24.43
2018-10-21T18:26:49.609Z,26.30
2018-10-21T18:29:19.727Z,20.03
2018-10-21T18:31:49.365Z,18.70
2018-10-21T18:34:19.487Z,17.70
2018-10-21T18:36:49.214Z,19.47
2018-10-21T18:39:19.403Z,22.47
2018-10-21T18:41:49.044Z,21.17
2018-10-21T18:44:19.434Z,30.00
2018-10-21T18:46:49.056Z,84.00
2018-10-21T18:49:19.300Z,117.23
2018-10-21T18:51:48.981Z,295.80
2018-10-21T18:54:19.479Z,170.63
2018-10-21T18:56:49.199Z,119.57
2018-10-21T18:59:19.276Z,79.83
2018-10-21T19:01:48.953Z,51.80
2018-10-21T19:04:19.278Z,78.70
2018-10-21T19:06:48.903Z,47.03
2018-10-21T19:09:18.875Z,27.60
2018-10-21T19:11:48.504Z,19.93
2018-10-21T19:14:18.472Z,23.07
2018-10-21T19:16:48.087Z,28.43
2018-10-21T19:19:17.825Z,21.57
2018-10-21T19:21:47.473Z,29.23
2018-10-21T19:24:17.160Z,20.67
2018-10-21T19:26:46.927Z,13.80
2018-10-21T19:29:16.686Z,13.27
2018-10-21T19:31:46.536Z,13.67
2018-10-21T19:34:16.366Z,19.93
2018-10-21T19:36:46.118Z,22.77
2018-10-21T19:39:15.816Z,13.10
2018-10-21T19:41:45.612Z,16.17
2018-10-21T19:44:15.382Z,15.90
2018-10-21T19:46:45.135Z,11.53
2018-10-21T19:49:15.029Z,10.13
2018-10-21T19:51:44.745Z,12.20
2018-10-21T19:54:14.440Z,14.30
2018-10-21T19:56:44.130Z,11.90
2018-10-21T19:59:13.800Z,11.90
2018-10-21T20:01:43.463Z,11.13
2018-10-21T20:04:13.250Z,12.63
2018-10-21T20:06:43.892Z,9.60
2018-10-21T20:09:13.570Z,9.37
2018-10-21T20:11:44.236Z,12.50
2018-10-21T20:14:14.126Z,8.80
2018-10-21T20:16:43.748Z,8.90
2018-10-21T20:19:13.568Z,9.80
2018-10-21T20:21:44.386Z,13.93
2018-10-21T20:24:14.084Z,8.57
2018-10-21T20:26:43.744Z,12.10
2018-10-21T20:29:13.563Z,10.53
2018-10-21T20:31:43.260Z,30.17
2018-10-21T20:34:13.017Z,19.97
2018-10-21T20:36:43.277Z,12.93
2018-10-21T20:39:12.992Z,9.57
2018-10-21T20:41:42.689Z,9.10
2018-10-21T20:44:12.366Z,10.43
2018-10-21T20:46:42.068Z,13.73
2018-10-21T20:49:11.708Z,17.33
2018-10-21T20:51:43.738Z,9.37
2018-10-21T20:54:13.499Z,9.13
2018-10-21T20:56:43.079Z,9.57
2018-10-21T20:59:12.773Z,8.30
2018-10-21T21:01:42.449Z,7.80
2018-10-21T21:04:12.238Z,9.47
2018-10-21T21:06:42.798Z,9.37
2018-10-21T21:09:12.593Z,9.53
2018-10-21T21:11:42.859Z,7.60
2018-10-21T21:14:12.491Z,12.47
2018-10-21T21:16:42.196Z,9.03
2018-10-21T21:19:12.012Z,7.07
2018-10-21T21:21:43.508Z,26.53
2018-10-21T21:24:13.242Z,32.23
2018-10-21T21:26:42.970Z,15.00
2018-10-21T21:29:12.659Z,13.90
2018-10-21T21:31:42.422Z,11.67
2018-10-21T21:34:12.169Z,11.50
2018-10-21T21:36:43.196Z,10.87
2018-10-21T21:39:14.107Z,8.40
2018-10-21T21:41:44.897Z,12.20
2018-10-21T21:44:14.531Z,7.50
2018-10-21T21:46:44.526Z,12.00
2018-10-21T21:49:14.938Z,12.27
2018-10-21T21:51:45.076Z,12.13
2018-10-21T21:54:14.982Z,11.83
2018-10-21T21:56:46.016Z,12.50
2018-10-21T21:59:15.708Z,11.60
2018-10-21T22:01:45.288Z,10.47
2018-10-21T22:04:15.071Z,7.30
2018-10-21T22:06:44.716Z,8.30
2018-10-21T22:09:14.594Z,8.60
2018-10-21T22:11:45.156Z,10.07
2018-10-21T22:14:14.843Z,11.07
2018-10-21T22:16:44.480Z,8.70
2018-10-21T22:19:14.143Z,10.43
2018-10-21T22:21:44.041Z,10.73
2018-10-21T22:24:13.693Z,12.30
2018-10-21T22:26:43.372Z,8.77
2018-10-21T22:29:13.060Z,8.47
2018-10-21T22:31:42.747Z,7.73
2018-10-21T22:34:12.472Z,9.73
2018-10-21T22:36:43.347Z,9.33
2018-10-21T22:39:12.971Z,10.67
2018-10-21T22:41:42.668Z,9.27
2018-10-21T22:44:12.399Z,9.43
2018-10-21T22:46:42.168Z,12.57
2018-10-21T22:49:11.775Z,13.67
2018-10-21T22:51:42.889Z,5.83
2018-10-21T22:54:12.690Z,10.13
2018-10-21T22:56:42.313Z,15.10
2018-10-21T22:59:11.966Z,12.73
2018-10-21T23:01:41.729Z,14.50
2018-10-21T23:04:11.523Z,9.97
2018-10-21T23:06:42.253Z,11.57
2018-10-21T23:09:12.727Z,10.40
2018-10-21T23:11:42.923Z,9.53
2018-10-21T23:14:12.897Z,8.07
2018-10-21T23:16:42.494Z,12.10
2018-10-21T23:19:49.221Z,12.57
2018-10-21T23:22:19.000Z,9.30
2018-10-21T23:24:48.564Z,11.67
2018-10-21T23:27:18.243Z,9.43
2018-10-21T23:29:47.913Z,10.00
2018-10-21T23:32:17.520Z,10.70
2018-10-21T23:34:47.164Z,14.17
2018-10-21T23:37:16.818Z,17.50
2018-10-21T23:39:46.420Z,11.37
2018-10-21T23:42:16.185Z,10.43
2018-10-21T23:44:45.937Z,9.97
2018-10-21T23:47:16.315Z,10.97
2018-10-21T23:49:45.960Z,9.77
2018-10-21T23:52:15.743Z,12.57
2018-10-21T23:54:45.317Z,10.37
2018-10-21T23:57:14.960Z,14.73
2018-10-21T23:59:44.680Z,11.57
